sensor_id;sensor_type;location;lat;lon;timestamp;pressure;altitude;pressure_sealevel;temperature;humidity
44481;BME280;30184;42.018;23.670;2023-04-22T00:00:54;91201.81;;;6.84;80.37
44481;BME280;30184;42.018;23.670;2023-04-22T00:03:25;91210.66;;;6.84;80.35
44481;BME280;30184;42.018;23.670;2023-04-22T00:05:56;91014.13;;;5.48;80.07
44481;BME280;30184;42.018;23.670;2023-04-22T00:08:25;91233.53;;;6.76;80.51
44481;BME280;30184;42.018;23.670;2023-04-22T00:10:55;91213.56;;;6.73;80.76
44481;BME280;30184;42.018;23.670;2023-04-22T00:13:24;91217.06;;;6.70;80.88
44481;BME280;30184;42.018;23.670;2023-04-22T00:15:54;91143.34;;;6.18;80.77
44481;BME280;30184;42.018;23.670;2023-04-22T00:18:24;91212.97;;;6.62;80.76
44481;BME280;30184;42.018;23.670;2023-04-22T00:20:54;91127.34;;;6.07;80.88
44481;BME280;30184;42.018;23.670;2023-04-22T00:23:25;91208.91;;;6.54;81.12
44481;BME280;30184;42.018;23.670;2023-04-22T00:25:55;91209.34;;;6.49;81.00
44481;BME280;30184;42.018;23.670;2023-04-22T00:28:24;91209.09;;;6.44;81.37
44481;BME280;30184;42.018;23.670;2023-04-22T00:30:53;91167.75;;;6.07;81.27
44481;BME280;30184;42.018;23.670;2023-04-22T00:33:25;91217.66;;;6.39;81.51
44481;BME280;30184;42.018;23.670;2023-04-22T00:35:55;91178.06;;;5.89;81.47
44481;BME280;30184;42.018;23.670;2023-04-22T00:38:26;91216.75;;;6.22;81.49
44481;BME280;30184;42.018;23.670;2023-04-22T00:40:56;91223.91;;;6.32;81.53
44481;BME280;30184;42.018;23.670;2023-04-22T00:43:26;91224.75;;;6.29;81.54
44481;BME280;30184;42.018;23.670;2023-04-22T00:45:56;91172.19;;;5.94;81.75
44481;BME280;30184;42.018;23.670;2023-04-22T00:48:25;91219.13;;;6.20;81.85
44481;BME280;30184;42.018;23.670;2023-04-22T00:50:55;91211.84;;;6.17;82.09
44481;BME280;30184;42.018;23.670;2023-04-22T00:53:27;91183.81;;;5.91;82.22
44481;BME280;30184;42.018;23.670;2023-04-22T00:55:57;91165.31;;;5.66;82.15
44481;BME280;30184;42.018;23.670;2023-04-22T00:58:27;91212.44;;;6.05;82.27
44481;BME280;30184;42.018;23.670;2023-04-22T01:00:57;91193.13;;;5.83;82.39
44481;BME280;30184;42.018;23.670;2023-04-22T01:03:28;91218.69;;;5.98;82.32
44481;BME280;30184;42.018;23.670;2023-04-22T01:05:58;91202.81;;;5.77;82.59
44481;BME280;30184;42.018;23.670;2023-04-22T01:08:30;91228.06;;;5.90;82.60
44481;BME280;30184;42.018;23.670;2023-04-22T01:11:01;91139.00;;;5.27;82.39
44481;BME280;30184;42.018;23.670;2023-04-22T01:13:31;91218.13;;;5.83;82.69
44481;BME280;30184;42.018;23.670;2023-04-22T01:16:04;91205.16;;;5.75;82.94
44481;BME280;30184;42.018;23.670;2023-04-22T01:18:36;91230.13;;;5.79;82.91
44481;BME280;30184;42.018;23.670;2023-04-22T01:21:05;91221.69;;;5.77;82.88
44481;BME280;30184;42.018;23.670;2023-04-22T01:23:37;91214.19;;;5.65;83.15
44481;BME280;30184;42.018;23.670;2023-04-22T01:26:08;91222.59;;;5.67;83.25
44481;BME280;30184;42.018;23.670;2023-04-22T01:28:37;91156.34;;;5.22;83.20
44481;BME280;30184;42.018;23.670;2023-04-22T01:31:07;91228.03;;;5.63;83.38
44481;BME280;30184;42.018;23.670;2023-04-22T01:33:37;91122.94;;;4.93;83.36
44481;BME280;30184;42.018;23.670;2023-04-22T01:36:07;91225.78;;;5.58;83.49
44481;BME280;30184;42.018;23.670;2023-04-22T01:38:40;91217.78;;;5.54;83.54
44481;BME280;30184;42.018;23.670;2023-04-22T01:41:09;91222.81;;;5.52;83.69
44481;BME280;30184;42.018;23.670;2023-04-22T01:43:39;91227.13;;;5.46;83.70
44481;BME280;30184;42.018;23.670;2023-04-22T01:46:10;91218.34;;;5.42;83.70
44481;BME280;30184;42.018;23.670;2023-04-22T01:48:39;91227.97;;;5.40;83.86
44481;BME280;30184;42.018;23.670;2023-04-22T01:51:09;91170.06;;;5.01;84.09
44481;BME280;30184;42.018;23.670;2023-04-22T01:53:40;91180.47;;;4.99;83.99
44481;BME280;30184;42.018;23.670;2023-04-22T01:56:10;91227.34;;;5.29;84.26
44481;BME280;30184;42.018;23.670;2023-04-22T01:58:39;91224.31;;;5.27;84.35
44481;BME280;30184;42.018;23.670;2023-04-22T02:01:11;91225.75;;;5.01;84.54
44481;BME280;30184;42.018;23.670;2023-04-22T02:03:41;91224.19;;;5.07;84.53
44481;BME280;30184;42.018;23.670;2023-04-22T02:06:12;91216.50;;;5.05;84.51
44481;BME280;30184;42.018;23.670;2023-04-22T02:08:43;91224.81;;;5.18;84.53
44481;BME280;30184;42.018;23.670;2023-04-22T02:11:14;91224.44;;;5.16;84.60
44481;BME280;30184;42.018;23.670;2023-04-22T02:13:44;91178.34;;;4.83;84.72
44481;BME280;30184;42.018;23.670;2023-04-22T02:16:13;91152.50;;;4.63;84.61
44481;BME280;30184;42.018;23.670;2023-04-22T02:18:43;91187.16;;;4.87;84.51
44481;BME280;30184;42.018;23.670;2023-04-22T02:21:13;91221.91;;;5.02;84.60
44481;BME280;30184;42.018;23.670;2023-04-22T02:23:44;91177.88;;;4.58;84.83
44481;BME280;30184;42.018;23.670;2023-04-22T02:26:13;91231.91;;;5.01;84.33
44481;BME280;30184;42.018;23.670;2023-04-22T02:28:43;91223.16;;;4.94;84.36
44481;BME280;30184;42.018;23.670;2023-04-22T02:31:13;91228.19;;;4.92;84.49
44481;BME280;30184;42.018;23.670;2023-04-22T02:33:42;91236.63;;;4.94;84.65
44481;BME280;30184;42.018;23.670;2023-04-22T02:36:12;91284.63;;;4.92;85.47
44481;BME280;30184;42.018;23.670;2023-04-22T02:38:42;91236.66;;;4.90;85.55
44481;BME280;30184;42.018;23.670;2023-04-22T02:41:16;91234.38;;;4.88;85.68
44481;BME280;30184;42.018;23.670;2023-04-22T02:43:46;91279.63;;;4.94;85.79
44481;BME280;30184;42.018;23.670;2023-04-22T02:46:16;91240.81;;;4.95;85.99
44481;BME280;30184;42.018;23.670;2023-04-22T02:48:45;91243.88;;;4.97;86.16
44481;BME280;30184;42.018;23.670;2023-04-22T02:51:17;91249.25;;;4.97;86.13
44481;BME280;30184;42.018;23.670;2023-04-22T02:53:48;91247.72;;;4.96;86.12
44481;BME280;30184;42.018;23.670;2023-04-22T02:56:19;91294.28;;;4.89;85.80
44481;BME280;30184;42.018;23.670;2023-04-22T02:58:49;91249.34;;;4.90;85.92
44481;BME280;30184;42.018;23.670;2023-04-22T03:01:18;91243.25;;;4.85;85.78
44481;BME280;30184;42.018;23.670;2023-04-22T03:03:48;91241.72;;;4.84;85.78
44481;BME280;30184;42.018;23.670;2023-04-22T03:06:21;91243.31;;;4.78;85.53
44481;BME280;30184;42.018;23.670;2023-04-22T03:08:51;91233.00;;;4.73;86.52
44481;BME280;30184;42.018;23.670;2023-04-22T03:11:23;91237.59;;;4.73;86.48
44481;BME280;30184;42.018;23.670;2023-04-22T03:13:53;91237.22;;;4.74;86.72
44481;BME280;30184;42.018;23.670;2023-04-22T03:16:22;91204.84;;;4.51;86.77
44481;BME280;30184;42.018;23.670;2023-04-22T03:18:55;91231.50;;;4.72;86.81
44481;BME280;30184;42.018;23.670;2023-04-22T03:21:24;91166.75;;;4.22;86.80
44481;BME280;30184;42.018;23.670;2023-04-22T03:23:55;91245.31;;;4.71;86.95
44481;BME280;30184;42.018;23.670;2023-04-22T03:26:28;91241.13;;;4.70;86.82
44481;BME280;30184;42.018;23.670;2023-04-22T03:28:58;91166.78;;;4.19;86.82
44481;BME280;30184;42.018;23.670;2023-04-22T03:31:28;91271.06;;;4.68;86.97
44481;BME280;30184;42.018;23.670;2023-04-22T03:33:58;91233.84;;;4.67;86.94
44481;BME280;30184;42.018;23.670;2023-04-22T03:36:29;91246.50;;;4.66;87.00
44481;BME280;30184;42.018;23.670;2023-04-22T03:38:59;91236.94;;;4.65;87.05
44481;BME280;30184;42.018;23.670;2023-04-22T03:41:33;91240.38;;;4.66;87.15
44481;BME280;30184;42.018;23.670;2023-04-22T03:44:03;91252.25;;;4.68;87.08
44481;BME280;30184;42.018;23.670;2023-04-22T03:46:34;91234.31;;;4.58;87.27
44481;BME280;30184;42.018;23.670;2023-04-22T03:49:24;91249.84;;;4.77;87.27
44481;BME280;30184;42.018;23.670;2023-04-22T03:51:55;91260.16;;;4.82;87.08
44481;BME280;30184;42.018;23.670;2023-04-22T03:54:25;91244.84;;;4.79;86.69
44481;BME280;30184;42.018;23.670;2023-04-22T03:56:57;91251.22;;;4.93;86.83
44481;BME280;30184;42.018;23.670;2023-04-22T03:59:26;91258.09;;;4.97;86.91
44481;BME280;30184;42.018;23.670;2023-04-22T04:01:56;91256.84;;;5.05;86.86
44481;BME280;30184;42.018;23.670;2023-04-22T04:04:26;91189.72;;;4.64;86.66
44481;BME280;30184;42.018;23.670;2023-04-22T04:06:59;91282.84;;;5.15;86.00
44481;BME280;30184;42.018;23.670;2023-04-22T04:09:30;91265.09;;;5.21;85.97
44481;BME280;30184;42.018;23.670;2023-04-22T04:12:02;91267.34;;;5.27;85.66
44481;BME280;30184;42.018;23.670;2023-04-22T04:14:37;91256.91;;;5.32;85.60
44481;BME280;30184;42.018;23.670;2023-04-22T04:17:06;91230.53;;;5.20;85.56
44481;BME280;30184;42.018;23.670;2023-04-22T04:19:37;91258.31;;;5.40;85.30
44481;BME280;30184;42.018;23.670;2023-04-22T04:22:07;91180.13;;;4.97;85.30
44481;BME280;30184;42.018;23.670;2023-04-22T04:24:46;91188.09;;;5.04;85.23
44481;BME280;30184;42.018;23.670;2023-04-22T04:27:22;91264.97;;;5.62;85.16
44481;BME280;30184;42.018;23.670;2023-04-22T04:29:53;91242.34;;;5.56;84.88
44481;BME280;30184;42.018;23.670;2023-04-22T04:32:35;91299.38;;;5.75;84.71
44481;BME280;30184;42.018;23.670;2023-04-22T04:35:08;91265.13;;;5.79;84.48
44481;BME280;30184;42.018;23.670;2023-04-22T04:37:42;91261.91;;;5.87;84.41
44481;BME280;30184;42.018;23.670;2023-04-22T04:40:14;91262.94;;;5.97;83.72
44481;BME280;30184;42.018;23.670;2023-04-22T04:42:52;91248.78;;;5.93;83.48
44481;BME280;30184;42.018;23.670;2023-04-22T04:45:27;91270.00;;;6.14;83.73
44481;BME280;30184;42.018;23.670;2023-04-22T04:47:57;91309.56;;;6.21;83.34
44481;BME280;30184;42.018;23.670;2023-04-22T04:50:35;91266.25;;;6.31;82.90
44481;BME280;30184;42.018;23.670;2023-04-22T04:53:05;91274.13;;;6.46;82.81
44481;BME280;30184;42.018;23.670;2023-04-22T04:55:38;91266.31;;;6.51;82.16
44481;BME280;30184;42.018;23.670;2023-04-22T04:58:17;91268.38;;;6.67;81.06
44481;BME280;30184;42.018;23.670;2023-04-22T05:00:51;91297.50;;;6.95;80.36
44481;BME280;30184;42.018;23.670;2023-04-22T05:03:21;91269.31;;;7.20;78.82
44481;BME280;30184;42.018;23.670;2023-04-22T05:05:51;91261.66;;;7.38;77.62
44481;BME280;30184;42.018;23.670;2023-04-22T05:08:20;91263.91;;;7.59;77.59
44481;BME280;30184;42.018;23.670;2023-04-22T05:10:52;91255.34;;;7.80;77.05
44481;BME280;30184;42.018;23.670;2023-04-22T05:13:23;91264.50;;;7.86;76.28
44481;BME280;30184;42.018;23.670;2023-04-22T05:15:55;91247.84;;;7.88;75.61
44481;BME280;30184;42.018;23.670;2023-04-22T05:18:25;91203.34;;;7.76;75.49
44481;BME280;30184;42.018;23.670;2023-04-22T05:20:57;91172.72;;;7.67;74.24
44481;BME280;30184;42.018;23.670;2023-04-22T05:23:26;91245.88;;;8.41;74.02
44481;BME280;30184;42.018;23.670;2023-04-22T05:25:58;91242.66;;;8.62;72.64
44481;BME280;30184;42.018;23.670;2023-04-22T05:28:29;91235.19;;;8.82;72.39
44481;BME280;30184;42.018;23.670;2023-04-22T05:30:58;91234.72;;;9.00;72.06
44481;BME280;30184;42.018;23.670;2023-04-22T05:33:29;91139.97;;;8.58;71.56
44481;BME280;30184;42.018;23.670;2023-04-22T05:35:59;91237.13;;;9.40;71.20
44481;BME280;30184;42.018;23.670;2023-04-22T05:38:28;91232.25;;;9.47;70.61
44481;BME280;30184;42.018;23.670;2023-04-22T05:40:57;91224.03;;;9.51;69.80
44481;BME280;30184;42.018;23.670;2023-04-22T05:43:26;91248.41;;;9.51;69.16
44481;BME280;30184;42.018;23.670;2023-04-22T05:46:05;91132.50;;;8.91;68.29
44481;BME280;30184;42.018;23.670;2023-04-22T05:48:37;91228.19;;;9.68;67.59
44481;BME280;30184;42.018;23.670;2023-04-22T05:51:20;91222.25;;;9.73;67.70
44481;BME280;30184;42.018;23.670;2023-04-22T05:53:50;91229.16;;;9.74;67.09
44481;BME280;30184;42.018;23.670;2023-04-22T05:56:20;91222.25;;;9.73;65.78
44481;BME280;30184;42.018;23.670;2023-04-22T05:58:49;91230.91;;;9.93;66.33
44481;BME280;30184;42.018;23.670;2023-04-22T06:01:23;91227.88;;;10.04;66.01
44481;BME280;30184;42.018;23.670;2023-04-22T06:03:59;91231.25;;;10.08;65.70
44481;BME280;30184;42.018;23.670;2023-04-22T06:06:29;91220.63;;;10.14;66.13
44481;BME280;30184;42.018;23.670;2023-04-22T06:08:59;91233.44;;;10.26;66.20
44481;BME280;30184;42.018;23.670;2023-04-22T06:11:29;91220.19;;;10.40;65.77
44481;BME280;30184;42.018;23.670;2023-04-22T06:13:58;91190.41;;;10.28;65.13
44481;BME280;30184;42.018;23.670;2023-04-22T06:16:29;91207.06;;;10.52;64.45
44481;BME280;30184;42.018;23.670;2023-04-22T06:18:58;91197.78;;;10.74;63.78
44481;BME280;30184;42.018;23.670;2023-04-22T06:21:28;91221.53;;;11.05;63.72
44481;BME280;30184;42.018;23.670;2023-04-22T06:23:59;91212.03;;;11.22;63.53
44481;BME280;30184;42.018;23.670;2023-04-22T06:26:28;91237.19;;;11.35;61.97
44481;BME280;30184;42.018;23.670;2023-04-22T06:28:58;91218.94;;;11.57;61.73
44481;BME280;30184;42.018;23.670;2023-04-22T06:31:31;91220.00;;;11.82;60.36
44481;BME280;30184;42.018;23.670;2023-04-22T06:34:00;91215.41;;;12.01;60.26
44481;BME280;30184;42.018;23.670;2023-04-22T06:36:29;91209.16;;;12.22;58.61
44481;BME280;30184;42.018;23.670;2023-04-22T06:39:01;91200.13;;;12.43;58.04
44481;BME280;30184;42.018;23.670;2023-04-22T06:41:44;91204.28;;;12.66;57.21
44481;BME280;30184;42.018;23.670;2023-04-22T06:44:29;91125.91;;;12.33;56.71
44481;BME280;30184;42.018;23.670;2023-04-22T06:47:24;91211.91;;;13.07;55.50
44481;BME280;30184;42.018;23.670;2023-04-22T06:50:09;91052.72;;;12.17;54.25
44481;BME280;30184;42.018;23.670;2023-04-22T06:52:52;91198.47;;;13.31;53.21
44481;BME280;30184;42.018;23.670;2023-04-22T06:55:23;91197.84;;;13.36;53.12
44481;BME280;30184;42.018;23.670;2023-04-22T06:57:52;91200.13;;;13.38;52.21
44481;BME280;30184;42.018;23.670;2023-04-22T07:00:22;91192.56;;;13.42;51.87
44481;BME280;30184;42.018;23.670;2023-04-22T07:02:53;91196.19;;;13.48;52.05
44481;BME280;30184;42.018;23.670;2023-04-22T07:05:23;91188.75;;;13.58;51.71
44481;BME280;30184;42.018;23.670;2023-04-22T07:07:52;91180.09;;;13.68;51.33
44481;BME280;30184;42.018;23.670;2023-04-22T07:10:23;91155.72;;;13.65;51.69
44481;BME280;30184;42.018;23.670;2023-04-22T07:13:16;91182.84;;;14.10;51.60
44481;BME280;30184;42.018;23.670;2023-04-22T07:15:45;91184.00;;;14.28;51.07
44481;BME280;30184;42.018;23.670;2023-04-22T07:18:16;91172.03;;;14.25;50.78
44481;BME280;30184;42.018;23.670;2023-04-22T07:20:45;91181.97;;;14.46;51.29
44481;BME280;30184;42.018;23.670;2023-04-22T07:23:14;91075.50;;;13.90;51.19
44481;BME280;30184;42.018;23.670;2023-04-22T07:25:43;91175.38;;;14.62;50.91
44481;BME280;30184;42.018;23.670;2023-04-22T07:28:12;91177.66;;;14.64;50.43
44481;BME280;30184;42.018;23.670;2023-04-22T07:30:42;91174.16;;;14.87;50.43
44481;BME280;30184;42.018;23.670;2023-04-22T07:33:11;91177.22;;;15.04;49.91
44481;BME280;30184;42.018;23.670;2023-04-22T07:35:42;91170.91;;;14.98;49.71
44481;BME280;30184;42.018;23.670;2023-04-22T07:38:11;91168.50;;;15.14;48.47
44481;BME280;30184;42.018;23.670;2023-04-22T07:40:41;91089.09;;;14.79;48.33
44481;BME280;30184;42.018;23.670;2023-04-22T07:43:10;91131.41;;;15.37;48.69
44481;BME280;30184;42.018;23.670;2023-04-22T07:45:39;91161.00;;;15.92;46.75
44481;BME280;30184;42.018;23.670;2023-04-22T07:48:09;91166.75;;;16.09;44.08
44481;BME280;30184;42.018;23.670;2023-04-22T07:50:38;91147.94;;;16.31;42.16
44481;BME280;30184;42.018;23.670;2023-04-22T07:53:09;91146.94;;;16.49;42.01
44481;BME280;30184;42.018;23.670;2023-04-22T07:55:39;91148.13;;;16.77;42.42
44481;BME280;30184;42.018;23.670;2023-04-22T07:58:08;91114.53;;;16.82;41.43
44481;BME280;30184;42.018;23.670;2023-04-22T08:00:37;91148.81;;;17.12;39.12
44481;BME280;30184;42.018;23.670;2023-04-22T08:03:07;91143.47;;;17.24;38.54
44481;BME280;30184;42.018;23.670;2023-04-22T08:05:36;91139.41;;;17.39;36.84
44481;BME280;30184;42.018;23.670;2023-04-22T08:08:06;91137.03;;;17.52;35.92
44481;BME280;30184;42.018;23.670;2023-04-22T08:10:37;91158.50;;;17.54;34.24
44481;BME280;30184;42.018;23.670;2023-04-22T08:13:06;91143.66;;;17.40;34.18
44481;BME280;30184;42.018;23.670;2023-04-22T08:15:35;91139.75;;;17.27;35.28
44481;BME280;30184;42.018;23.670;2023-04-22T08:18:05;91142.78;;;17.08;38.17
44481;BME280;30184;42.018;23.670;2023-04-22T08:20:34;91140.53;;;16.87;39.14
44481;BME280;30184;42.018;23.670;2023-04-22T08:23:03;91147.69;;;16.64;39.10
44481;BME280;30184;42.018;23.670;2023-04-22T08:25:34;91178.84;;;16.52;40.32
44481;BME280;30184;42.018;23.670;2023-04-22T08:28:04;91152.78;;;16.41;39.52
44481;BME280;30184;42.018;23.670;2023-04-22T08:30:34;91158.59;;;16.29;39.07
44481;BME280;30184;42.018;23.670;2023-04-22T08:33:03;91153.78;;;16.24;39.39
44481;BME280;30184;42.018;23.670;2023-04-22T08:35:33;91159.34;;;16.15;38.87
44481;BME280;30184;42.018;23.670;2023-04-22T08:38:02;91158.72;;;15.61;38.11
44481;BME280;30184;42.018;23.670;2023-04-22T08:40:33;91149.09;;;15.80;37.44
44481;BME280;30184;42.018;23.670;2023-04-22T08:43:02;91231.34;;;15.77;37.27
44481;BME280;30184;42.018;23.670;2023-04-22T08:45:33;91049.56;;;14.89;38.51
44481;BME280;30184;42.018;23.670;2023-04-22T08:48:03;91171.34;;;15.58;37.91
44481;BME280;30184;42.018;23.670;2023-04-22T08:50:34;91174.31;;;15.46;39.87
44481;BME280;30184;42.018;23.670;2023-04-22T08:53:05;91177.41;;;15.39;43.38
44481;BME280;30184;42.018;23.670;2023-04-22T08:55:35;91184.53;;;15.21;44.66
44481;BME280;30184;42.018;23.670;2023-04-22T08:58:04;91174.03;;;15.05;46.83
44481;BME280;30184;42.018;23.670;2023-04-22T09:00:34;91186.19;;;14.80;48.78
44481;BME280;30184;42.018;23.670;2023-04-22T09:03:05;91115.06;;;14.18;49.93
44481;BME280;30184;42.018;23.670;2023-04-22T09:05:36;91163.19;;;14.39;49.10
44481;BME280;30184;42.018;23.670;2023-04-22T09:08:08;91086.81;;;13.55;50.38
44481;BME280;30184;42.018;23.670;2023-04-22T09:10:39;90990.38;;;13.01;53.13
44481;BME280;30184;42.018;23.670;2023-04-22T09:13:09;91191.09;;;13.92;53.71
44481;BME280;30184;42.018;23.670;2023-04-22T09:15:39;91168.84;;;13.85;56.49
44481;BME280;30184;42.018;23.670;2023-04-22T09:18:09;91168.44;;;13.68;55.42
44481;BME280;30184;42.018;23.670;2023-04-22T09:20:41;91148.19;;;13.41;53.34
44481;BME280;30184;42.018;23.670;2023-04-22T09:23:11;91196.66;;;13.28;52.13
44481;BME280;30184;42.018;23.670;2023-04-22T09:25:41;91095.28;;;12.79;50.59
44481;BME280;30184;42.018;23.670;2023-04-22T09:28:17;91110.66;;;13.00;51.71
44481;BME280;30184;42.018;23.670;2023-04-22T09:30:48;91016.94;;;12.37;49.53
44481;BME280;30184;42.018;23.670;2023-04-22T09:33:17;91178.28;;;13.65;51.36
44481;BME280;30184;42.018;23.670;2023-04-22T09:35:46;90980.81;;;12.09;56.09
44481;BME280;30184;42.018;23.670;2023-04-22T09:38:16;91114.31;;;13.33;57.12
44481;BME280;30184;42.018;23.670;2023-04-22T09:40:45;91112.28;;;13.61;51.95
44481;BME280;30184;42.018;23.670;2023-04-22T09:43:17;91158.91;;;14.47;47.40
44481;BME280;30184;42.018;23.670;2023-04-22T09:45:48;91070.22;;;14.10;44.47
44481;BME280;30184;42.018;23.670;2023-04-22T09:48:18;91156.31;;;15.01;43.61
44481;BME280;30184;42.018;23.670;2023-04-22T09:50:49;91174.34;;;15.22;43.98
44481;BME280;30184;42.018;23.670;2023-04-22T09:53:20;91181.53;;;15.19;42.35
44481;BME280;30184;42.018;23.670;2023-04-22T09:55:51;91059.75;;;14.65;42.81
44481;BME280;30184;42.018;23.670;2023-04-22T09:58:21;91117.72;;;15.22;41.33
44481;BME280;30184;42.018;23.670;2023-04-22T10:00:56;91050.31;;;14.90;41.37
44481;BME280;30184;42.018;23.670;2023-04-22T10:03:26;91130.59;;;15.60;40.76
44481;BME280;30184;42.018;23.670;2023-04-22T10:05:56;91119.56;;;15.70;40.57
44481;BME280;30184;42.018;23.670;2023-04-22T10:08:25;91115.41;;;15.89;39.38
44481;BME280;30184;42.018;23.670;2023-04-22T10:10:55;91048.66;;;15.66;39.95
44481;BME280;30184;42.018;23.670;2023-04-22T10:13:24;91028.28;;;15.67;38.26
44481;BME280;30184;42.018;23.670;2023-04-22T10:15:56;91095.22;;;16.01;38.71
44481;BME280;30184;42.018;23.670;2023-04-22T10:18:27;91130.88;;;16.07;37.91
44481;BME280;30184;42.018;23.670;2023-04-22T10:20:58;91091.78;;;16.21;37.11
44481;BME280;30184;42.018;23.670;2023-04-22T10:23:31;91093.94;;;16.17;37.28
44481;BME280;30184;42.018;23.670;2023-04-22T10:26:03;91084.09;;;16.25;36.62
44481;BME280;30184;42.018;23.670;2023-04-22T10:28:33;91102.34;;;16.13;36.94
44481;BME280;30184;42.018;23.670;2023-04-22T10:31:19;91021.97;;;16.11;36.61
44481;BME280;30184;42.018;23.670;2023-04-22T10:33:49;91063.06;;;16.51;35.85
44481;BME280;30184;42.018;23.670;2023-04-22T10:36:19;91051.56;;;16.47;36.48
44481;BME280;30184;42.018;23.670;2023-04-22T10:39:19;91071.03;;;16.90;36.17
44481;BME280;30184;42.018;23.670;2023-04-22T10:41:53;91056.75;;;17.06;36.35
44481;BME280;30184;42.018;23.670;2023-04-22T10:44:27;91022.69;;;16.87;36.20
44481;BME280;30184;42.018;23.670;2023-04-22T10:47:00;91064.88;;;16.95;36.51
44481;BME280;30184;42.018;23.670;2023-04-22T10:49:30;91026.59;;;17.58;34.55
44481;BME280;30184;42.018;23.670;2023-04-22T10:52:04;91055.97;;;18.09;34.56
44481;BME280;30184;42.018;23.670;2023-04-22T10:54:57;91048.16;;;18.33;33.33
44481;BME280;30184;42.018;23.670;2023-04-22T10:57:36;91056.50;;;18.55;32.95
44481;BME280;30184;42.018;23.670;2023-04-22T11:00:25;91044.72;;;18.49;32.45
44481;BME280;30184;42.018;23.670;2023-04-22T11:03:16;91051.91;;;18.84;32.82
44481;BME280;30184;42.018;23.670;2023-04-22T11:05:45;91056.50;;;19.04;33.31
44481;BME280;30184;42.018;23.670;2023-04-22T11:08:19;91016.22;;;19.00;33.23
44481;BME280;30184;42.018;23.670;2023-04-22T11:10:50;91015.78;;;19.19;33.74
44481;BME280;30184;42.018;23.670;2023-04-22T11:13:22;90998.81;;;19.26;33.03
44481;BME280;30184;42.018;23.670;2023-04-22T11:15:54;91050.16;;;19.51;32.44
44481;BME280;30184;42.018;23.670;2023-04-22T11:18:26;90991.78;;;19.19;32.14
44481;BME280;30184;42.018;23.670;2023-04-22T11:20:55;90985.28;;;19.22;32.28
44481;BME280;30184;42.018;23.670;2023-04-22T11:23:26;91053.84;;;19.37;34.01
44481;BME280;30184;42.018;23.670;2023-04-22T11:25:58;91036.38;;;19.46;34.32
44481;BME280;30184;42.018;23.670;2023-04-22T11:28:28;91049.13;;;19.49;34.51
44481;BME280;30184;42.018;23.670;2023-04-22T11:31:02;90995.47;;;18.94;34.77
44481;BME280;30184;42.018;23.670;2023-04-22T11:33:33;91057.81;;;19.25;36.13
44481;BME280;30184;42.018;23.670;2023-04-22T11:36:04;91051.03;;;19.15;35.72
44481;BME280;30184;42.018;23.670;2023-04-22T11:38:34;91001.44;;;18.87;36.05
44481;BME280;30184;42.018;23.670;2023-04-22T11:41:04;91005.66;;;18.77;36.02
44481;BME280;30184;42.018;23.670;2023-04-22T11:43:45;91012.41;;;18.76;36.56
44481;BME280;30184;42.018;23.670;2023-04-22T11:46:14;91063.31;;;18.66;36.87
44481;BME280;30184;42.018;23.670;2023-04-22T11:48:46;91066.72;;;18.12;37.71
44481;BME280;30184;42.018;23.670;2023-04-22T11:51:15;91048.47;;;17.52;37.55
44481;BME280;30184;42.018;23.670;2023-04-22T11:53:49;91073.00;;;17.61;38.28
44481;BME280;30184;42.018;23.670;2023-04-22T11:56:20;91078.31;;;17.39;39.95
44481;BME280;30184;42.018;23.670;2023-04-22T11:58:49;91086.66;;;17.04;40.43
44481;BME280;30184;42.018;23.670;2023-04-22T12:01:20;91078.59;;;16.74;43.00
44481;BME280;30184;42.018;23.670;2023-04-22T12:03:58;91123.59;;;16.53;44.26
44481;BME280;30184;42.018;23.670;2023-04-22T12:06:29;91065.03;;;16.30;45.74
44481;BME280;30184;42.018;23.670;2023-04-22T12:09:00;91094.59;;;16.26;43.53
44481;BME280;30184;42.018;23.670;2023-04-22T12:11:29;91115.13;;;16.01;45.02
44481;BME280;30184;42.018;23.670;2023-04-22T12:14:04;91082.28;;;15.87;43.68
44481;BME280;30184;42.018;23.670;2023-04-22T12:16:38;90961.47;;;14.80;44.98
44481;BME280;30184;42.018;23.670;2023-04-22T12:19:10;91070.88;;;15.15;47.13
44481;BME280;30184;42.018;23.670;2023-04-22T12:21:40;91127.69;;;14.72;51.02
44481;BME280;30184;42.018;23.670;2023-04-22T12:24:10;91096.75;;;14.09;52.91
44481;BME280;30184;42.018;23.670;2023-04-22T12:26:42;91126.06;;;14.00;55.55
44481;BME280;30184;42.018;23.670;2023-04-22T12:29:11;91043.47;;;13.66;54.44
44481;BME280;30184;42.018;23.670;2023-04-22T12:31:41;91126.84;;;13.91;55.19
44481;BME280;30184;42.018;23.670;2023-04-22T12:34:12;91109.31;;;14.16;56.14
44481;BME280;30184;42.018;23.670;2023-04-22T12:36:42;91084.06;;;13.64;56.75
44481;BME280;30184;42.018;23.670;2023-04-22T12:39:12;91118.47;;;14.04;57.52
44481;BME280;30184;42.018;23.670;2023-04-22T12:41:42;91051.53;;;13.61;56.05
44481;BME280;30184;42.018;23.670;2023-04-22T12:44:12;91069.50;;;13.76;57.82
44481;BME280;30184;42.018;23.670;2023-04-22T12:46:42;91132.09;;;14.04;58.88
44481;BME280;30184;42.018;23.670;2023-04-22T12:49:14;91131.31;;;14.12;58.16
44481;BME280;30184;42.018;23.670;2023-04-22T12:51:44;91132.66;;;14.17;59.64
44481;BME280;30184;42.018;23.670;2023-04-22T12:54:14;91149.19;;;14.13;59.40
44481;BME280;30184;42.018;23.670;2023-04-22T12:56:44;91136.31;;;14.14;59.31
44481;BME280;30184;42.018;23.670;2023-04-22T12:59:14;91157.00;;;13.97;58.52
44481;BME280;30184;42.018;23.670;2023-04-22T13:01:44;91136.38;;;13.96;58.73
44481;BME280;30184;42.018;23.670;2023-04-22T13:04:17;91119.81;;;13.66;59.32
44481;BME280;30184;42.018;23.670;2023-04-22T13:06:47;91141.69;;;13.90;58.79
44481;BME280;30184;42.018;23.670;2023-04-22T13:09:23;91025.91;;;13.07;58.63
44481;BME280;30184;42.018;23.670;2023-04-22T13:11:54;91175.66;;;13.89;59.27
44481;BME280;30184;42.018;23.670;2023-04-22T13:14:24;91206.13;;;13.88;59.12
44481;BME280;30184;42.018;23.670;2023-04-22T13:16:53;91164.78;;;13.80;58.43